createdAt,value
2018-04-04T00:02:25.558Z,12.00
2018-04-04T00:04:53.812Z,12.00
2018-04-04T00:07:22.103Z,12.00
2018-04-04T00:09:50.359Z,11.90
2018-04-04T00:12:18.664Z,11.90
2018-04-04T00:14:46.915Z,11.80
2018-04-04T00:17:15.182Z,11.90
2018-04-04T00:19:43.455Z,11.90
2018-04-04T00:22:14.854Z,11.80
2018-04-04T00:24:43.147Z,11.80
2018-04-04T00:27:10.639Z,11.70
2018-04-04T00:29:38.883Z,11.70
2018-04-04T00:32:07.172Z,11.70
2018-04-04T00:34:35.436Z,11.70
2018-04-04T00:37:03.742Z,11.70
2018-04-04T00:39:33.138Z,11.70
2018-04-04T00:42:02.937Z,11.60
2018-04-04T00:44:31.294Z,11.60
2018-04-04T00:46:59.559Z,11.50
2018-04-04T00:49:27.819Z,11.50
2018-04-04T00:51:56.111Z,11.50
2018-04-04T00:54:24.363Z,11.50
2018-04-04T00:56:52.618Z,11.50
2018-04-04T00:59:20.913Z,11.50
2018-04-04T01:01:49.196Z,11.50
2018-04-04T01:04:17.455Z,11.60
2018-04-04T01:06:45.746Z,11.50
2018-04-04T01:09:13.999Z,11.40
2018-04-04T01:11:42.270Z,11.30
2018-04-04T01:14:10.531Z,11.30
2018-04-04T01:16:38.830Z,11.30
2018-04-04T01:19:07.119Z,11.30
2018-04-04T01:21:35.371Z,11.30
2018-04-04T01:24:03.646Z,11.30
2018-04-04T01:26:32.865Z,11.30
2018-04-04T01:29:01.164Z,11.20
2018-04-04T01:31:29.446Z,11.20
2018-04-04T01:33:57.709Z,11.20
2018-04-04T01:36:25.963Z,11.20
2018-04-04T01:38:54.226Z,11.20
2018-04-04T01:41:22.506Z,11.10
2018-04-04T01:43:50.773Z,11.10
2018-04-04T01:46:29.221Z,11.10
2018-04-04T01:48:57.489Z,11.10
2018-04-04T01:51:25.774Z,11.10
2018-04-04T01:53:54.021Z,11.10
2018-04-04T01:56:22.274Z,11.00
2018-04-04T01:58:50.579Z,11.00
2018-04-04T02:01:18.834Z,10.90
2018-04-04T02:03:47.133Z,10.90
2018-04-04T02:06:15.414Z,10.90
2018-04-04T02:08:43.667Z,10.80
2018-04-04T02:11:11.954Z,10.70
2018-04-04T02:13:40.207Z,10.70
2018-04-04T02:16:08.450Z,10.70
2018-04-04T02:18:36.726Z,10.70
2018-04-04T02:21:05.017Z,10.60
2018-04-04T02:23:34.379Z,10.60
2018-04-04T02:26:02.627Z,10.70
2018-04-04T02:28:30.940Z,10.60
2018-04-04T02:30:59.194Z,10.60
2018-04-04T02:33:27.443Z,10.50
2018-04-04T02:35:55.726Z,10.50
2018-04-04T02:38:24.033Z,10.40
2018-04-04T02:40:52.282Z,10.40
2018-04-04T02:43:20.544Z,10.30
2018-04-04T02:45:48.081Z,10.30
2018-04-04T02:48:16.339Z,10.30
2018-04-04T02:50:44.622Z,10.20
2018-04-04T02:53:12.888Z,10.20
2018-04-04T02:55:41.178Z,10.20
2018-04-04T02:58:09.430Z,10.10
2018-04-04T03:00:37.679Z,10.10
2018-04-04T03:03:05.962Z,10.10
2018-04-04T03:05:34.238Z,10.00
2018-04-04T03:08:03.457Z,10.00
2018-04-04T03:10:32.106Z,10.00
2018-04-04T03:13:00.375Z,10.00
2018-04-04T03:15:28.655Z,10.00
2018-04-04T03:17:56.905Z,10.00
2018-04-04T03:20:25.184Z,10.00
2018-04-04T03:22:53.479Z,9.90
2018-04-04T03:25:20.974Z,9.90
2018-04-04T03:27:49.254Z,9.90
2018-04-04T03:30:17.551Z,10.00
2018-04-04T03:32:45.834Z,10.00
2018-04-04T03:35:14.082Z,10.00
2018-04-04T03:37:42.358Z,10.00
2018-04-04T03:40:10.622Z,10.00
2018-04-04T03:42:38.932Z,10.00
2018-04-04T03:45:07.178Z,10.00
2018-04-04T03:47:35.422Z,10.00
2018-04-04T03:50:03.717Z,10.00
2018-04-04T03:52:31.242Z,10.00
2018-04-04T03:54:59.486Z,9.90
2018-04-04T03:57:27.739Z,9.90
2018-04-04T03:59:56.019Z,9.90
2018-04-04T04:02:24.262Z,9.90
2018-04-04T04:04:52.529Z,10.00
2018-04-04T04:07:21.449Z,9.90
2018-04-04T04:09:49.086Z,9.90
2018-04-04T04:12:17.365Z,9.90
2018-04-04T04:14:45.648Z,9.90
2018-04-04T04:17:13.910Z,9.90
2018-04-04T04:19:42.200Z,9.90
2018-04-04T04:22:09.694Z,9.90
2018-04-04T04:24:38.010Z,9.90
2018-04-04T04:27:06.259Z,9.90
2018-04-04T04:29:34.502Z,9.90
2018-04-04T04:32:02.775Z,9.90
2018-04-04T04:34:31.018Z,9.90
2018-04-04T04:36:59.295Z,9.90
2018-04-04T04:39:27.569Z,9.90
2018-04-04T04:41:55.863Z,9.90
2018-04-04T04:44:24.139Z,9.90
2018-04-04T04:46:52.387Z,9.90
2018-04-04T04:49:20.682Z,9.90
2018-04-04T04:51:48.959Z,9.90
2018-04-04T04:54:16.457Z,9.90
2018-04-04T04:56:44.742Z,9.80
2018-04-04T04:59:13.006Z,9.80
2018-04-04T05:01:41.274Z,9.80
2018-04-04T05:04:09.562Z,9.80
2018-04-04T05:06:37.838Z,9.70
2018-04-04T05:09:06.083Z,9.70
2018-04-04T05:11:34.359Z,9.60
2018-04-04T05:14:02.615Z,9.70
2018-04-04T05:16:30.895Z,9.60
2018-04-04T05:18:59.135Z,9.60
2018-04-04T05:21:26.657Z,9.60
2018-04-04T05:23:54.910Z,9.60
2018-04-04T05:26:22.446Z,9.60
2018-04-04T05:28:50.695Z,9.60
2018-04-04T05:31:18.232Z,9.60
2018-04-04T05:33:46.482Z,9.60
2018-04-04T05:36:14.014Z,9.60
2018-04-04T05:38:42.281Z,9.70
2018-04-04T05:41:10.566Z,9.70
2018-04-04T05:43:38.817Z,9.80
2018-04-04T05:46:07.146Z,9.80
2018-04-04T05:48:35.391Z,9.70
2018-04-04T05:51:03.637Z,9.70
2018-04-04T05:53:32.931Z,9.80
2018-04-04T05:56:01.183Z,9.90
2018-04-04T05:58:29.494Z,9.90
2018-04-04T06:00:57.737Z,9.90
2018-04-04T06:03:26.019Z,10.00
2018-04-04T06:05:54.280Z,9.90
2018-04-04T06:08:22.559Z,10.00
2018-04-04T06:10:50.828Z,10.00
2018-04-04T06:13:19.109Z,10.10
2018-04-04T06:15:47.365Z,10.10
2018-04-04T06:18:15.658Z,10.10
2018-04-04T06:20:43.936Z,10.10
2018-04-04T06:23:12.195Z,10.10
2018-04-04T06:25:39.710Z,10.10
2018-04-04T06:28:07.977Z,10.00
2018-04-04T06:30:36.245Z,10.10
2018-04-04T06:33:04.499Z,10.20
2018-04-04T06:35:33.333Z,10.10
2018-04-04T06:38:01.648Z,10.10
2018-04-04T06:40:29.905Z,10.10
2018-04-04T06:42:58.209Z,10.10
2018-04-04T06:45:26.493Z,10.20
2018-04-04T06:47:54.770Z,10.20
2018-04-04T06:50:23.072Z,10.20
2018-04-04T06:52:51.358Z,10.30
2018-04-04T06:55:19.661Z,10.30
2018-04-04T06:57:47.950Z,10.30
2018-04-04T07:00:16.198Z,10.30
2018-04-04T07:02:44.491Z,10.30
2018-04-04T07:05:12.752Z,10.40
2018-04-04T07:07:41.106Z,10.50
2018-04-04T07:10:09.314Z,10.50
2018-04-04T07:12:37.577Z,10.50
2018-04-04T07:15:05.862Z,10.60
2018-04-04T07:17:34.134Z,10.60
2018-04-04T07:20:03.289Z,10.60
2018-04-04T07:22:32.147Z,10.60
2018-04-04T07:25:00.469Z,10.60
2018-04-04T07:27:31.733Z,10.60
2018-04-04T07:30:00.018Z,10.70
2018-04-04T07:32:28.306Z,10.70
2018-04-04T07:34:56.604Z,10.80
2018-04-04T07:37:24.857Z,10.80
2018-04-04T07:39:53.135Z,10.80
2018-04-04T07:42:21.382Z,10.90
2018-04-04T07:44:49.657Z,10.90
2018-04-04T07:47:17.945Z,10.90
2018-04-04T07:49:46.227Z,11.00
2018-04-04T07:52:14.494Z,11.00
2018-04-04T07:54:42.772Z,11.10
2018-04-04T07:57:11.074Z,11.20
2018-04-04T07:59:39.386Z,11.20
2018-04-04T08:02:07.666Z,11.20
2018-04-04T08:04:35.922Z,11.20
2018-04-04T08:07:04.202Z,11.20
2018-04-04T08:09:33.431Z,11.30
2018-04-04T08:12:01.694Z,11.40
2018-04-04T08:14:29.979Z,11.40
2018-04-04T08:16:58.248Z,11.40
2018-04-04T08:19:26.553Z,11.40
2018-04-04T08:21:54.803Z,11.40
2018-04-04T08:24:26.822Z,11.50
2018-04-04T08:26:55.100Z,11.50
2018-04-04T08:29:23.378Z,11.50
2018-04-04T08:31:50.903Z,11.50
2018-04-04T08:34:19.240Z,11.60
2018-04-04T08:36:47.446Z,11.60
2018-04-04T08:39:15.727Z,11.70
2018-04-04T08:41:44.010Z,11.70
2018-04-04T08:44:12.266Z,11.70
2018-04-04T08:46:40.565Z,11.80
2018-04-04T08:49:08.851Z,11.90
2018-04-04T08:51:37.117Z,12.00
2018-04-04T08:54:05.391Z,12.20
2018-04-04T08:56:33.258Z,12.20
2018-04-04T08:59:03.750Z,12.30
2018-04-04T09:01:33.163Z,12.40
2018-04-04T09:04:02.618Z,12.50
2018-04-04T09:06:30.920Z,12.80
2018-04-04T09:08:59.253Z,13.00
2018-04-04T09:11:27.555Z,13.00
2018-04-04T09:13:55.848Z,13.10
2018-04-04T09:16:24.168Z,13.20
2018-04-04T09:18:52.452Z,13.20
2018-04-04T09:21:20.768Z,13.30
2018-04-04T09:23:49.057Z,13.40
2018-04-04T09:26:17.389Z,13.60
2018-04-04T09:28:45.793Z,13.70
2018-04-04T09:31:14.095Z,13.70
2018-04-04T09:33:42.419Z,13.60
2018-04-04T09:36:10.711Z,13.60
2018-04-04T09:38:39.035Z,13.50
2018-04-04T09:41:07.323Z,13.40
2018-04-04T09:43:35.640Z,13.40
2018-04-04T09:46:03.980Z,13.50
2018-04-04T09:48:33.956Z,13.50
2018-04-04T09:51:02.662Z,13.50
2018-04-04T09:53:30.948Z,13.60
2018-04-04T09:55:59.272Z,13.50
2018-04-04T09:58:27.588Z,13.50
2018-04-04T10:00:55.933Z,13.50
2018-04-04T10:03:24.252Z,13.50
2018-04-04T10:05:52.597Z,13.40
2018-04-04T10:08:20.888Z,13.40
2018-04-04T10:10:49.207Z,13.30
2018-04-04T10:13:17.541Z,13.40
2018-04-04T10:15:45.856Z,13.50
2018-04-04T10:18:14.204Z,13.50
2018-04-04T10:20:42.514Z,13.70
2018-04-04T10:23:10.838Z,13.70
2018-04-04T10:25:39.137Z,13.90
2018-04-04T10:28:07.455Z,14.10
2018-04-04T10:30:35.773Z,14.20
2018-04-04T10:33:04.096Z,14.40
2018-04-04T10:35:35.442Z,14.40
2018-04-04T10:38:03.753Z,14.40
2018-04-04T10:40:33.168Z,14.40
2018-04-04T10:43:02.124Z,14.50
2018-04-04T10:45:30.462Z,14.50
2018-04-04T10:47:58.817Z,14.50
2018-04-04T10:50:27.128Z,14.50
2018-04-04T10:52:55.422Z,14.50
2018-04-04T10:55:23.739Z,14.50
2018-04-04T10:57:51.264Z,14.50
2018-04-04T11:00:19.607Z,14.70
2018-04-04T11:02:47.907Z,14.70
2018-04-04T11:05:16.241Z,14.80
2018-04-04T11:07:44.577Z,14.80
2018-04-04T11:10:12.920Z,14.80
2018-04-04T11:12:41.222Z,14.80
2018-04-04T11:15:09.524Z,14.70
2018-04-04T11:17:37.857Z,14.80
2018-04-04T11:20:06.191Z,14.80
2018-04-04T11:22:34.508Z,14.80
2018-04-04T11:25:03.850Z,14.70
2018-04-04T11:27:33.185Z,14.80
2018-04-04T11:30:02.212Z,14.70
2018-04-04T11:32:30.540Z,14.70
2018-04-04T11:34:58.867Z,14.70
2018-04-04T11:37:27.180Z,14.70
2018-04-04T11:39:55.507Z,14.60
2018-04-04T11:42:23.048Z,14.60
2018-04-04T11:44:51.381Z,14.60
2018-04-04T11:47:18.926Z,14.60
2018-04-04T11:49:47.273Z,14.60
2018-04-04T11:52:15.560Z,14.60
2018-04-04T11:54:43.889Z,14.60
2018-04-04T11:57:13.108Z,14.60
2018-04-04T11:59:41.400Z,14.60
2018-04-04T12:02:09.728Z,14.70
2018-04-04T12:04:38.021Z,14.60
2018-04-04T12:07:06.376Z,14.60
2018-04-04T12:09:34.677Z,14.60
2018-04-04T12:12:04.155Z,14.60
2018-04-04T12:14:33.408Z,14.60
2018-04-04T12:17:01.013Z,14.60
2018-04-04T12:19:29.327Z,14.70
2018-04-04T12:21:57.629Z,14.70
2018-04-04T12:24:25.967Z,14.70
2018-04-04T12:26:54.336Z,14.70
2018-04-04T12:29:22.628Z,14.70
2018-04-04T12:31:50.916Z,14.60
2018-04-04T12:34:19.269Z,14.60
2018-04-04T12:36:47.587Z,14.60
2018-04-04T12:39:15.924Z,14.50
2018-04-04T12:41:43.457Z,14.50
2018-04-04T12:44:11.790Z,14.50
2018-04-04T12:46:40.129Z,14.50
2018-04-04T12:49:08.433Z,14.60
2018-04-04T12:51:36.767Z,14.50
2018-04-04T12:54:05.065Z,14.50
2018-04-04T12:56:34.738Z,14.50
2018-04-04T12:59:04.349Z,14.50
2018-04-04T13:01:32.885Z,14.50
2018-04-04T13:04:01.191Z,14.60
2018-04-04T13:06:29.528Z,14.60
2018-04-04T13:08:57.860Z,14.60
2018-04-04T13:11:26.165Z,14.60
2018-04-04T13:13:54.498Z,14.50
2018-04-04T13:16:34.788Z,14.60
2018-04-04T13:19:04.462Z,14.50
2018-04-04T13:21:33.904Z,14.60
2018-04-04T13:24:02.887Z,14.60
2018-04-04T13:26:31.196Z,14.60
2018-04-04T13:28:59.521Z,14.60
2018-04-04T13:31:27.879Z,14.50
2018-04-04T13:33:56.176Z,14.50
2018-04-04T13:36:24.517Z,14.50
2018-04-04T13:38:52.866Z,14.50
2018-04-04T13:41:21.221Z,14.60
2018-04-04T13:43:49.518Z,14.60
2018-04-04T13:46:17.849Z,14.60
2018-04-04T13:48:46.153Z,14.70
2018-04-04T13:51:13.829Z,14.70
2018-04-04T13:53:42.121Z,14.60
2018-04-04T13:56:10.428Z,14.50
2018-04-04T13:58:38.806Z,14.50
2018-04-04T14:01:07.103Z,14.50
2018-04-04T14:03:35.414Z,14.50
2018-04-04T14:06:03.734Z,14.60
2018-04-04T14:08:33.334Z,14.60
2018-04-04T14:11:01.648Z,14.60
2018-04-04T14:13:30.005Z,14.70
2018-04-04T14:15:58.310Z,14.70
2018-04-04T14:18:26.760Z,14.80
2018-04-04T14:20:55.062Z,14.70
2018-04-04T14:23:22.601Z,14.70
2018-04-04T14:25:50.930Z,14.60
2018-04-04T14:28:19.248Z,14.50
2018-04-04T14:30:47.567Z,14.40
2018-04-04T14:33:15.866Z,14.50
2018-04-04T14:35:44.288Z,14.50
2018-04-04T14:38:12.599Z,14.40
2018-04-04T14:40:40.850Z,14.40
2018-04-04T14:43:09.176Z,14.40
2018-04-04T14:45:37.480Z,14.30
2018-04-04T14:48:05.758Z,14.20
2018-04-04T14:50:34.028Z,14.20
2018-04-04T14:53:03.594Z,14.20
2018-04-04T14:55:33.045Z,14.10
2018-04-04T14:58:01.312Z,14.20
2018-04-04T15:00:29.629Z,14.20
2018-04-04T15:02:57.887Z,14.30
2018-04-04T15:05:26.188Z,14.40
2018-04-04T15:07:54.467Z,14.50
2018-04-04T15:10:22.718Z,14.70
2018-04-04T15:12:51.014Z,14.80
2018-04-04T15:15:19.315Z,15.00
2018-04-04T15:17:47.591Z,15.00
2018-04-04T15:20:15.843Z,15.00
2018-04-04T15:22:44.125Z,14.80
2018-04-04T15:25:11.639Z,14.80
2018-04-04T15:27:39.930Z,14.40
2018-04-04T15:30:08.179Z,14.20
2018-04-04T15:32:36.466Z,14.10
2018-04-04T15:35:04.715Z,13.90
2018-04-04T15:37:34.111Z,13.90
2018-04-04T15:40:03.246Z,14.00
2018-04-04T15:42:32.334Z,14.00
2018-04-04T15:45:02.283Z,14.10
2018-04-04T15:47:30.538Z,14.20
2018-04-04T15:49:58.837Z,14.30
2018-04-04T15:52:27.092Z,14.40
2018-04-04T15:54:55.393Z,14.40
2018-04-04T15:57:23.638Z,14.60
2018-04-04T15:59:51.916Z,14.50
2018-04-04T16:02:23.114Z,14.60
2018-04-04T16:04:51.367Z,14.60
2018-04-04T16:07:19.647Z,14.70
2018-04-04T16:09:47.919Z,14.80
2018-04-04T16:12:16.228Z,14.80
2018-04-04T16:14:44.571Z,14.70
2018-04-04T16:17:12.827Z,14.80
2018-04-04T16:19:41.118Z,14.90
2018-04-04T16:22:09.422Z,15.00
2018-04-04T16:24:37.735Z,15.00
2018-04-04T16:27:05.220Z,15.00
2018-04-04T16:29:39.812Z,15.00
2018-04-04T16:32:08.062Z,14.90
2018-04-04T16:34:36.319Z,14.90
2018-04-04T16:37:04.594Z,14.90
2018-04-04T16:39:34.192Z,14.80
2018-04-04T16:42:01.728Z,14.80
2018-04-04T16:44:29.983Z,14.80
2018-04-04T16:46:58.267Z,14.90
2018-04-04T16:49:26.526Z,14.80
2018-04-04T16:51:54.814Z,14.80
2018-04-04T16:54:23.102Z,14.80
2018-04-04T16:56:51.367Z,14.80
2018-04-04T16:59:19.658Z,14.80
2018-04-04T17:01:47.957Z,14.80
2018-04-04T17:04:16.206Z,14.80
2018-04-04T17:06:43.687Z,14.80
2018-04-04T17:09:11.961Z,14.70
2018-04-04T17:11:40.226Z,14.70
2018-04-04T17:14:08.525Z,14.60
2018-04-04T17:16:36.774Z,14.40
2018-04-04T17:19:05.050Z,14.40
2018-04-04T17:21:34.634Z,14.30
2018-04-04T17:24:04.100Z,14.20
2018-04-04T17:26:33.413Z,14.10
2018-04-04T17:29:02.088Z,14.10
2018-04-04T17:31:30.342Z,14.10
2018-04-04T17:33:58.622Z,14.00
2018-04-04T17:36:26.112Z,14.00
2018-04-04T17:38:54.400Z,14.00
2018-04-04T17:41:22.686Z,14.00
2018-04-04T17:43:50.931Z,13.90
2018-04-04T17:46:19.223Z,13.90
2018-04-04T17:48:47.475Z,13.80
2018-04-04T17:51:15.769Z,13.80
2018-04-04T17:53:44.022Z,13.80
2018-04-04T17:56:11.533Z,13.80
2018-04-04T17:58:39.785Z,13.70
2018-04-04T18:01:08.086Z,13.70
2018-04-04T18:03:36.332Z,13.70
2018-04-04T18:06:04.090Z,13.70
2018-04-04T18:08:32.905Z,13.50
2018-04-04T18:11:01.173Z,13.50
2018-04-04T18:13:29.462Z,13.40
2018-04-04T18:15:57.740Z,13.50
2018-04-04T18:18:26.037Z,13.40
2018-04-04T18:20:54.294Z,13.40
2018-04-04T18:23:21.818Z,13.40
2018-04-04T18:25:50.082Z,13.30
2018-04-04T18:28:18.382Z,13.30
2018-04-04T18:30:46.634Z,13.20
2018-04-04T18:33:14.126Z,13.20
2018-04-04T18:35:42.459Z,13.20
2018-04-04T18:38:10.710Z,13.20
2018-04-04T18:40:38.955Z,13.20
2018-04-04T18:43:07.262Z,13.10
2018-04-04T18:45:35.517Z,13.10
2018-04-04T18:48:03.785Z,13.10
2018-04-04T18:50:33.199Z,13.10
2018-04-04T18:53:02.276Z,13.00
2018-04-04T18:55:30.557Z,12.90
2018-04-04T18:57:58.802Z,12.90
2018-04-04T19:00:27.079Z,12.80
2018-04-04T19:02:55.369Z,12.80
2018-04-04T19:05:23.638Z,12.70
2018-04-04T19:07:51.922Z,12.70
2018-04-04T19:10:20.182Z,12.70
2018-04-04T19:12:48.493Z,12.70
2018-04-04T19:15:16.752Z,12.70
2018-04-04T19:17:45.043Z,12.70
2018-04-04T19:20:13.329Z,12.60
2018-04-04T19:22:41.610Z,12.60
2018-04-04T19:25:09.890Z,12.50
2018-04-04T19:27:38.149Z,12.60
2018-04-04T19:30:06.454Z,12.50
2018-04-04T19:32:34.694Z,12.50
2018-04-04T19:35:03.793Z,12.50
2018-04-04T19:37:33.186Z,12.40
2018-04-04T19:40:02.187Z,12.40
2018-04-04T19:42:30.443Z,12.40
2018-04-04T19:44:58.728Z,12.50
2018-04-04T19:47:26.241Z,12.40
2018-04-04T19:49:54.518Z,12.40
2018-04-04T19:52:22.798Z,12.30
2018-04-04T19:54:51.054Z,12.30
2018-04-04T19:57:19.331Z,12.20
2018-04-04T19:59:47.582Z,12.30
2018-04-04T20:02:15.866Z,12.30
2018-04-04T20:04:44.135Z,12.30
2018-04-04T20:07:12.433Z,12.20
2018-04-04T20:09:40.715Z,12.10
2018-04-04T20:12:08.966Z,12.00
2018-04-04T20:14:37.246Z,12.00
2018-04-04T20:17:05.517Z,12.00
2018-04-04T20:19:33.795Z,11.90
2018-04-04T20:22:02.818Z,12.00
2018-04-04T20:24:31.104Z,12.00
2018-04-04T20:26:59.367Z,12.00
2018-04-04T20:29:27.652Z,12.00
2018-04-04T20:31:55.138Z,12.00
2018-04-04T20:34:23.413Z,11.90
2018-04-04T20:36:50.902Z,11.90
2018-04-04T20:39:19.220Z,11.90
2018-04-04T20:41:47.475Z,12.00
2018-04-04T20:44:15.781Z,11.90
2018-04-04T20:46:44.027Z,11.90
2018-04-04T20:49:12.297Z,11.90
2018-04-04T20:51:40.582Z,12.00
2018-04-04T20:54:08.066Z,11.90
2018-04-04T20:56:36.374Z,12.00
2018-04-04T20:59:04.635Z,12.10
2018-04-04T21:01:33.891Z,12.10
2018-04-04T21:04:03.589Z,12.10
2018-04-04T21:06:31.869Z,12.10
2018-04-04T21:09:00.151Z,12.00
2018-04-04T21:11:28.426Z,12.00
2018-04-04T21:13:56.752Z,12.00
2018-04-04T21:16:24.230Z,12.00
2018-04-04T21:18:52.514Z,12.00
2018-04-04T21:21:20.790Z,12.00
2018-04-04T21:23:49.056Z,12.00
2018-04-04T21:26:17.353Z,12.00
2018-04-04T21:28:45.607Z,12.00
2018-04-04T21:31:13.873Z,12.10
2018-04-04T21:33:42.166Z,12.00
2018-04-04T21:36:10.421Z,11.90
2018-04-04T21:38:38.685Z,11.90
2018-04-04T21:41:06.991Z,11.80
2018-04-04T21:43:35.260Z,11.70
2018-04-04T21:46:03.478Z,11.70
2018-04-04T21:48:31.789Z,11.70
2018-04-04T21:51:00.101Z,11.70
2018-04-04T21:53:28.393Z,11.60
2018-04-04T21:55:56.678Z,11.50
2018-04-04T21:58:24.926Z,11.60
2018-04-04T22:00:53.180Z,11.40
2018-04-04T22:03:20.713Z,11.40
2018-04-04T22:05:49.019Z,11.30
2018-04-04T22:08:17.270Z,11.20
2018-04-04T22:10:45.554Z,11.20
2018-04-04T22:13:13.839Z,11.20
2018-04-04T22:15:42.122Z,11.20
2018-04-04T22:18:10.386Z,11.20
2018-04-04T22:20:38.670Z,11.20
2018-04-04T22:23:06.946Z,11.20
2018-04-04T22:25:35.200Z,11.20
2018-04-04T22:28:04.988Z,11.20
2018-04-04T22:30:34.465Z,11.20
2018-04-04T22:33:03.462Z,11.10
2018-04-04T22:35:31.811Z,11.20
2018-04-04T22:38:00.161Z,11.10
2018-04-04T22:40:28.419Z,11.10
2018-04-04T22:42:56.708Z,11.10
2018-04-04T22:45:25.043Z,11.10
2018-04-04T22:47:53.300Z,11.20
2018-04-04T22:50:21.586Z,11.20
2018-04-04T22:52:49.865Z,11.10
2018-04-04T22:55:18.126Z,11.10
2018-04-04T22:57:46.448Z,11.10
2018-04-04T23:00:14.760Z,11.20
2018-04-04T23:02:42.316Z,11.20
2018-04-04T23:05:10.618Z,11.10
2018-04-04T23:07:38.939Z,11.10
2018-04-04T23:10:07.268Z,11.10
2018-04-04T23:12:35.588Z,11.10
2018-04-04T23:15:07.125Z,11.10
2018-04-04T23:17:35.984Z,11.10
2018-04-04T23:20:04.290Z,11.00
2018-04-04T23:22:32.616Z,10.90
2018-04-04T23:25:04.291Z,10.90
2018-04-04T23:27:33.263Z,10.80
2018-04-04T23:30:02.334Z,10.70
2018-04-04T23:32:30.664Z,10.60
2018-04-04T23:35:02.719Z,10.60
2018-04-04T23:37:31.052Z,10.60
2018-04-04T23:39:59.339Z,10.60
2018-04-04T23:42:27.644Z,10.70
2018-04-04T23:44:55.980Z,10.70
2018-04-04T23:47:24.310Z,10.70
2018-04-04T23:49:52.615Z,10.70
2018-04-04T23:52:20.937Z,10.80
2018-04-04T23:54:49.223Z,10.80
2018-04-04T23:57:17.550Z,10.80
2018-04-04T23:59:45.876Z,10.80
